sensor_id;sensor_type;location;lat;lon;timestamp;pressure;altitude;pressure_sealevel;temperature;humidity
39265;BME280;42646;51.910;7.724;2023-02-14T00:01:50;102917.22;;;1.20;100.00
39265;BME280;42646;51.910;7.724;2023-02-14T00:04:21;102911.09;;;1.18;100.00
39265;BME280;42646;51.910;7.724;2023-02-14T00:06:49;102919.88;;;1.16;100.00
39265;BME280;42646;51.910;7.724;2023-02-14T00:09:18;102921.69;;;1.14;100.00
39265;BME280;42646;51.910;7.724;2023-02-14T00:11:46;102916.47;;;1.11;100.00
39265;BME280;42646;51.910;7.724;2023-02-14T00:14:15;102914.78;;;1.08;100.00
39265;BME280;42646;51.910;7.724;2023-02-14T00:17:00;102914.78;;;1.05;100.00
39265;BME280;42646;51.910;7.724;2023-02-14T00:19:30;102920.09;;;1.02;100.00
39265;BME280;42646;51.910;7.724;2023-02-14T00:22:00;102915.78;;;0.98;100.00
39265;BME280;42646;51.910;7.724;2023-02-14T00:24:28;102920.19;;;0.96;100.00
39265;BME280;42646;51.910;7.724;2023-02-14T00:26:55;102923.69;;;0.93;100.00
39265;BME280;42646;51.910;7.724;2023-02-14T00:29:25;102922.00;;;0.91;100.00
39265;BME280;42646;51.910;7.724;2023-02-14T00:31:54;102923.75;;;0.89;100.00
39265;BME280;42646;51.910;7.724;2023-02-14T00:34:23;102920.28;;;0.87;100.00
39265;BME280;42646;51.910;7.724;2023-02-14T00:36:53;102923.81;;;0.86;100.00
39265;BME280;42646;51.910;7.724;2023-02-14T00:39:22;102918.63;;;0.81;100.00
39265;BME280;42646;51.910;7.724;2023-02-14T00:41:50;102916.91;;;0.78;100.00
39265;BME280;42646;51.910;7.724;2023-02-14T00:44:18;102923.91;;;0.76;100.00
39265;BME280;42646;51.910;7.724;2023-02-14T00:46:46;102920.44;;;0.74;100.00
39265;BME280;42646;51.910;7.724;2023-02-14T00:49:14;102922.25;;;0.72;100.00
39265;BME280;42646;51.910;7.724;2023-02-14T00:51:44;102924.00;;;0.70;100.00
39265;BME280;42646;51.910;7.724;2023-02-14T00:54:13;102928.41;;;0.68;100.00
39265;BME280;42646;51.910;7.724;2023-02-14T00:56:40;102924.94;;;0.65;100.00
39265;BME280;42646;51.910;7.724;2023-02-14T00:59:08;102928.47;;;0.62;100.00
39265;BME280;42646;51.910;7.724;2023-02-14T01:01:36;102927.63;;;0.59;100.00
39265;BME280;42646;51.910;7.724;2023-02-14T01:04:04;102927.69;;;0.56;100.00
39265;BME280;42646;51.910;7.724;2023-02-14T01:06:34;102928.56;;;0.53;100.00
39265;BME280;42646;51.910;7.724;2023-02-14T01:09:01;102932.97;;;0.51;100.00
39265;BME280;42646;51.910;7.724;2023-02-14T01:11:33;102933.88;;;0.48;100.00
39265;BME280;42646;51.910;7.724;2023-02-14T01:14:00;102933.03;;;0.45;100.00
39265;BME280;42646;51.910;7.724;2023-02-14T01:16:29;102933.94;;;0.42;100.00
39265;BME280;42646;51.910;7.724;2023-02-14T01:18:58;102947.03;;;0.41;100.00
39265;BME280;42646;51.910;7.724;2023-02-14T01:21:30;102935.75;;;0.37;100.00
39265;BME280;42646;51.910;7.724;2023-02-14T01:24:01;102941.00;;;0.36;100.00
39265;BME280;42646;51.910;7.724;2023-02-14T01:26:30;102936.72;;;0.30;100.00
39265;BME280;42646;51.910;7.724;2023-02-14T01:29:01;102937.56;;;0.31;100.00
39265;BME280;42646;51.910;7.724;2023-02-14T01:31:30;102934.09;;;0.29;100.00
39265;BME280;42646;51.910;7.724;2023-02-14T01:34:00;102935.84;;;0.28;100.00
39265;BME280;42646;51.910;7.724;2023-02-14T01:36:29;102932.31;;;0.29;100.00
39265;BME280;42646;51.910;7.724;2023-02-14T01:39:01;102932.34;;;0.28;100.00
39265;BME280;42646;51.910;7.724;2023-02-14T01:41:32;102930.66;;;0.25;100.00
39265;BME280;42646;51.910;7.724;2023-02-14T01:44:07;102937.63;;;0.23;100.00
39265;BME280;42646;51.910;7.724;2023-02-14T01:46:36;102941.16;;;0.20;100.00
39265;BME280;42646;51.910;7.724;2023-02-14T01:49:09;102930.72;;;0.19;100.00
39265;BME280;42646;51.910;7.724;2023-02-14T01:51:43;102931.59;;;0.16;100.00
39265;BME280;42646;51.910;7.724;2023-02-14T01:54:13;102930.75;;;0.14;100.00
39265;BME280;42646;51.910;7.724;2023-02-14T01:56:45;102929.91;;;0.12;100.00
39265;BME280;42646;51.910;7.724;2023-02-14T01:59:18;102923.81;;;0.10;100.00
39265;BME280;42646;51.910;7.724;2023-02-14T02:01:49;102924.69;;;0.09;100.00
39265;BME280;42646;51.910;7.724;2023-02-14T02:04:25;102925.59;;;0.08;100.00
39265;BME280;42646;51.910;7.724;2023-02-14T02:06:57;102928.22;;;0.07;100.00
39265;BME280;42646;51.910;7.724;2023-02-14T02:09:32;102921.25;;;0.04;100.00
39265;BME280;42646;51.910;7.724;2023-02-14T02:12:03;102923.88;;;0.03;100.00
39265;BME280;42646;51.910;7.724;2023-02-14T02:14:33;102926.53;;;0.01;100.00
39265;BME280;42646;51.910;7.724;2023-02-14T02:17:14;102924.78;;;-0.02;100.00
39265;BME280;42646;51.910;7.724;2023-02-14T02:20:17;102923.94;;;-0.02;100.00
39265;BME280;42646;51.910;7.724;2023-02-14T02:26:28;102917.88;;;-0.07;100.00
39265;BME280;42646;51.910;7.724;2023-02-14T02:30:01;102914.38;;;-0.08;100.00
39265;BME280;42646;51.910;7.724;2023-02-14T02:32:53;102905.69;;;-0.08;100.00
39265;BME280;42646;51.910;7.724;2023-02-14T02:35:48;102904.78;;;-0.07;100.00
39265;BME280;42646;51.910;7.724;2023-02-14T02:38:38;102899.56;;;-0.07;100.00
39265;BME280;42646;51.910;7.724;2023-02-14T02:41:22;102896.09;;;-0.09;100.00
39265;BME280;42646;51.910;7.724;2023-02-14T02:44:02;102901.31;;;-0.09;100.00
39265;BME280;42646;51.910;7.724;2023-02-14T02:46:38;102903.94;;;-0.09;100.00
39265;BME280;42646;51.910;7.724;2023-02-14T02:49:26;102903.09;;;-0.11;100.00
39265;BME280;42646;51.910;7.724;2023-02-14T02:52:19;102897.88;;;-0.13;100.00
39265;BME280;42646;51.910;7.724;2023-02-14T02:55:08;102897.03;;;-0.16;100.00
39265;BME280;42646;51.910;7.724;2023-02-14T02:57:42;102885.69;;;-0.15;100.00
39265;BME280;42646;51.910;7.724;2023-02-14T03:00:15;102888.28;;;-0.14;100.00
39265;BME280;42646;51.910;7.724;2023-02-14T03:02:47;102884.81;;;-0.14;100.00
39265;BME280;42646;51.910;7.724;2023-02-14T03:05:35;102881.31;;;-0.13;100.00
39265;BME280;42646;51.910;7.724;2023-02-14T03:08:08;102881.31;;;-0.15;100.00
39265;BME280;42646;51.910;7.724;2023-02-14T03:10:37;102875.22;;;-0.14;100.00
39265;BME280;42646;51.910;7.724;2023-02-14T03:13:22;102876.09;;;-0.15;100.00
39265;BME280;42646;51.910;7.724;2023-02-14T03:16:02;102869.16;;;-0.17;100.00
39265;BME280;42646;51.910;7.724;2023-02-14T03:18:46;102875.25;;;-0.17;100.00
39265;BME280;42646;51.910;7.724;2023-02-14T03:21:45;102877.88;;;-0.18;100.00
39265;BME280;42646;51.910;7.724;2023-02-14T03:24:23;102875.25;;;-0.18;100.00
39265;BME280;42646;51.910;7.724;2023-02-14T03:27:00;102877.03;;;-0.20;100.00
39265;BME280;42646;51.910;7.724;2023-02-14T03:29:43;102880.53;;;-0.21;100.00
39265;BME280;42646;51.910;7.724;2023-02-14T03:32:23;102876.19;;;-0.22;100.00
39265;BME280;42646;51.910;7.724;2023-02-14T03:34:59;102877.91;;;-0.24;100.00
39265;BME280;42646;51.910;7.724;2023-02-14T03:37:36;102871.84;;;-0.27;100.00
39265;BME280;42646;51.910;7.724;2023-02-14T03:40:17;102867.50;;;-0.28;100.00
39265;BME280;42646;51.910;7.724;2023-02-14T03:42:52;102858.78;;;-0.28;100.00
39265;BME280;42646;51.910;7.724;2023-02-14T03:45:25;102864.00;;;-0.27;100.00
39265;BME280;42646;51.910;7.724;2023-02-14T03:47:59;102852.66;;;-0.25;100.00
39265;BME280;42646;51.910;7.724;2023-02-14T03:50:30;102856.16;;;-0.27;100.00
39265;BME280;42646;51.910;7.724;2023-02-14T03:53:00;102856.19;;;-0.28;100.00
39265;BME280;42646;51.910;7.724;2023-02-14T03:55:35;102855.31;;;-0.30;100.00
39265;BME280;42646;51.910;7.724;2023-02-14T03:58:09;102855.34;;;-0.32;100.00
39265;BME280;42646;51.910;7.724;2023-02-14T04:00:42;102858.84;;;-0.33;100.00
39265;BME280;42646;51.910;7.724;2023-02-14T04:03:18;102858.84;;;-0.34;100.00
39265;BME280;42646;51.910;7.724;2023-02-14T04:05:48;102861.47;;;-0.36;100.00
39265;BME280;42646;51.910;7.724;2023-02-14T04:08:22;102852.78;;;-0.38;100.00
39265;BME280;42646;51.910;7.724;2023-02-14T04:10:52;102853.66;;;-0.39;100.00
39265;BME280;42646;51.910;7.724;2023-02-14T04:13:25;102853.66;;;-0.39;100.00
39265;BME280;42646;51.910;7.724;2023-02-14T04:15:53;102850.19;;;-0.39;100.00
39265;BME280;42646;51.910;7.724;2023-02-14T04:18:22;102848.44;;;-0.39;100.00
39265;BME280;42646;51.910;7.724;2023-02-14T04:21:09;102851.06;;;-0.40;100.00
39265;BME280;42646;51.910;7.724;2023-02-14T04:23:37;102851.94;;;-0.41;100.00
39265;BME280;42646;51.910;7.724;2023-02-14T04:26:10;102849.31;;;-0.43;100.00
39265;BME280;42646;51.910;7.724;2023-02-14T04:28:38;102843.25;;;-0.45;100.00
39265;BME280;42646;51.910;7.724;2023-02-14T04:31:06;102847.66;;;-0.47;100.00
39265;BME280;42646;51.910;7.724;2023-02-14T04:33:38;102846.78;;;-0.49;100.00
39265;BME280;42646;51.910;7.724;2023-02-14T04:36:07;102838.94;;;-0.50;100.00
39265;BME280;42646;51.910;7.724;2023-02-14T04:38:35;102837.22;;;-0.51;100.00
39265;BME280;42646;51.910;7.724;2023-02-14T04:41:03;102834.63;;;-0.53;100.00
39265;BME280;42646;51.910;7.724;2023-02-14T04:43:34;102832.88;;;-0.54;100.00
39265;BME280;42646;51.910;7.724;2023-02-14T04:46:02;102836.38;;;-0.55;100.00
39265;BME280;42646;51.910;7.724;2023-02-14T04:48:30;102823.31;;;-0.57;100.00
39265;BME280;42646;51.910;7.724;2023-02-14T04:50:58;102829.44;;;-0.58;100.00
39265;BME280;42646;51.910;7.724;2023-02-14T04:53:27;102831.16;;;-0.57;100.00
39265;BME280;42646;51.910;7.724;2023-02-14T04:55:59;102830.31;;;-0.57;100.00
39265;BME280;42646;51.910;7.724;2023-02-14T04:58:29;102814.63;;;-0.59;100.00
39265;BME280;42646;51.910;7.724;2023-02-14T05:00:58;102821.63;;;-0.59;100.00
39265;BME280;42646;51.910;7.724;2023-02-14T05:03:27;102818.09;;;-0.60;100.00
39265;BME280;42646;51.910;7.724;2023-02-14T05:05:55;102813.78;;;-0.62;100.00
39265;BME280;42646;51.910;7.724;2023-02-14T05:08:23;102811.22;;;-0.65;100.00
39265;BME280;42646;51.910;7.724;2023-02-14T05:10:53;102812.06;;;-0.66;100.00
39265;BME280;42646;51.910;7.724;2023-02-14T05:13:21;102806.88;;;-0.68;100.00
39265;BME280;42646;51.910;7.724;2023-02-14T05:15:49;102808.63;;;-0.68;100.00
39265;BME280;42646;51.910;7.724;2023-02-14T05:18:18;102811.25;;;-0.70;100.00
39265;BME280;42646;51.910;7.724;2023-02-14T05:20:48;102811.25;;;-0.70;100.00
39265;BME280;42646;51.910;7.724;2023-02-14T05:23:16;102809.53;;;-0.71;100.00
39265;BME280;42646;51.910;7.724;2023-02-14T05:25:46;102807.75;;;-0.72;100.00
39265;BME280;42646;51.910;7.724;2023-02-14T05:28:14;102809.50;;;-0.72;100.00
39265;BME280;42646;51.910;7.724;2023-02-14T05:30:43;102810.41;;;-0.73;100.00
39265;BME280;42646;51.910;7.724;2023-02-14T05:33:12;102801.69;;;-0.74;100.00
39265;BME280;42646;51.910;7.724;2023-02-14T05:35:45;102800.81;;;-0.74;100.00
39265;BME280;42646;51.910;7.724;2023-02-14T05:38:13;102805.19;;;-0.75;100.00
39265;BME280;42646;51.910;7.724;2023-02-14T05:40:42;102807.81;;;-0.76;100.00
39265;BME280;42646;51.910;7.724;2023-02-14T05:43:09;102804.34;;;-0.77;100.00
39265;BME280;42646;51.910;7.724;2023-02-14T05:45:38;102811.28;;;-0.77;100.00
39265;BME280;42646;51.910;7.724;2023-02-14T05:48:05;102813.91;;;-0.77;100.00
39265;BME280;42646;51.910;7.724;2023-02-14T05:50:34;102808.69;;;-0.79;100.00
39265;BME280;42646;51.910;7.724;2023-02-14T05:53:03;102810.47;;;-0.81;100.00
39265;BME280;42646;51.910;7.724;2023-02-14T05:55:32;102816.59;;;-0.82;100.00
39265;BME280;42646;51.910;7.724;2023-02-14T05:58:00;102814.81;;;-0.83;100.00
39265;BME280;42646;51.910;7.724;2023-02-14T06:00:28;102819.19;;;-0.85;100.00
39265;BME280;42646;51.910;7.724;2023-02-14T06:02:59;102816.59;;;-0.85;100.00
39265;BME280;42646;51.910;7.724;2023-02-14T06:05:27;102814.81;;;-0.83;100.00
39265;BME280;42646;51.910;7.724;2023-02-14T06:07:55;102814.81;;;-0.83;100.00
39265;BME280;42646;51.910;7.724;2023-02-14T06:10:24;102825.28;;;-0.83;100.00
39265;BME280;42646;51.910;7.724;2023-02-14T06:12:57;102824.44;;;-0.85;100.00
39265;BME280;42646;51.910;7.724;2023-02-14T06:15:25;102837.53;;;-0.88;100.00
39265;BME280;42646;51.910;7.724;2023-02-14T06:17:55;102835.78;;;-0.88;100.00
39265;BME280;42646;51.910;7.724;2023-02-14T06:20:24;102834.03;;;-0.90;100.00
39265;BME280;42646;51.910;7.724;2023-02-14T06:22:53;102834.91;;;-0.91;100.00
39265;BME280;42646;51.910;7.724;2023-02-14T06:25:21;102834.03;;;-0.90;100.00
39265;BME280;42646;51.910;7.724;2023-02-14T06:27:54;102832.28;;;-0.90;100.00
39265;BME280;42646;51.910;7.724;2023-02-14T06:30:22;102834.03;;;-0.90;100.00
39265;BME280;42646;51.910;7.724;2023-02-14T06:32:53;102838.38;;;-0.89;100.00
39265;BME280;42646;51.910;7.724;2023-02-14T06:35:21;102835.78;;;-0.88;100.00
39265;BME280;42646;51.910;7.724;2023-02-14T06:37:49;102838.38;;;-0.89;100.00
39265;BME280;42646;51.910;7.724;2023-02-14T06:40:17;102841.91;;;-0.89;100.00
39265;BME280;42646;51.910;7.724;2023-02-14T06:42:47;102841.00;;;-0.88;100.00
39265;BME280;42646;51.910;7.724;2023-02-14T06:45:16;102843.63;;;-0.88;100.00
39265;BME280;42646;51.910;7.724;2023-02-14T06:47:47;102846.22;;;-0.88;100.00
39265;BME280;42646;51.910;7.724;2023-02-14T06:50:16;102846.22;;;-0.88;100.00
39265;BME280;42646;51.910;7.724;2023-02-14T06:52:52;102858.44;;;-0.88;100.00
39265;BME280;42646;51.910;7.724;2023-02-14T06:55:20;102858.41;;;-0.90;100.00
39265;BME280;42646;51.910;7.724;2023-02-14T06:57:49;102859.28;;;-0.89;100.00
39265;BME280;42646;51.910;7.724;2023-02-14T07:00:20;102856.66;;;-0.89;100.00
39265;BME280;42646;51.910;7.724;2023-02-14T07:02:47;102863.66;;;-0.90;100.00
39265;BME280;42646;51.910;7.724;2023-02-14T07:05:16;102863.66;;;-0.90;100.00
39265;BME280;42646;51.910;7.724;2023-02-14T07:07:45;102869.78;;;-0.92;100.00
39265;BME280;42646;51.910;7.724;2023-02-14T07:10:12;102859.31;;;-0.91;100.00
39265;BME280;42646;51.910;7.724;2023-02-14T07:12:42;102862.78;;;-0.90;100.00
39265;BME280;42646;51.910;7.724;2023-02-14T07:15:11;102863.66;;;-0.88;100.00
39265;BME280;42646;51.910;7.724;2023-02-14T07:17:42;102857.53;;;-0.87;100.00
39265;BME280;42646;51.910;7.724;2023-02-14T07:20:14;102861.88;;;-0.85;100.00
39265;BME280;42646;51.910;7.724;2023-02-14T07:22:43;102867.97;;;-0.83;100.00
39265;BME280;42646;51.910;7.724;2023-02-14T07:25:11;102860.94;;;-0.77;100.00
39265;BME280;42646;51.910;7.724;2023-02-14T07:27:39;102873.97;;;-0.73;100.00
39265;BME280;42646;51.910;7.724;2023-02-14T07:30:09;102860.88;;;-0.65;100.00
39265;BME280;42646;51.910;7.724;2023-02-14T07:32:41;102861.66;;;-0.56;100.00
39265;BME280;42646;51.910;7.724;2023-02-14T07:35:10;102856.34;;;-0.46;100.00
39265;BME280;42646;51.910;7.724;2023-02-14T07:37:40;102861.53;;;-0.43;100.00
39265;BME280;42646;51.910;7.724;2023-02-14T07:40:10;102864.06;;;-0.36;100.00
39265;BME280;42646;51.910;7.724;2023-02-14T07:42:41;102863.97;;;-0.22;100.00
39265;BME280;42646;51.910;7.724;2023-02-14T07:45:09;102861.22;;;-0.10;100.00
39265;BME280;42646;51.910;7.724;2023-02-14T07:47:49;102848.94;;;-0.03;100.00
39265;BME280;42646;51.910;7.724;2023-02-14T07:50:18;102849.75;;;0.04;100.00
39265;BME280;42646;51.910;7.724;2023-02-14T07:52:46;102852.34;;;0.07;100.00
39265;BME280;42646;51.910;7.724;2023-02-14T07:55:14;102854.03;;;0.09;100.00
39265;BME280;42646;51.910;7.724;2023-02-14T07:57:42;102860.97;;;0.12;100.00
39265;BME280;42646;51.910;7.724;2023-02-14T08:00:35;102858.38;;;0.13;100.00
39265;BME280;42646;51.910;7.724;2023-02-14T08:03:05;102857.44;;;0.16;100.00
39265;BME280;42646;51.910;7.724;2023-02-14T08:05:32;102853.06;;;0.19;100.00
39265;BME280;42646;51.910;7.724;2023-02-14T08:08:06;102859.06;;;0.28;100.00
39265;BME280;42646;51.910;7.724;2023-02-14T08:10:33;102847.63;;;0.36;100.00
39265;BME280;42646;51.910;7.724;2023-02-14T08:13:01;102849.28;;;0.43;100.00
39265;BME280;42646;51.910;7.724;2023-02-14T08:15:31;102850.09;;;0.48;100.00
39265;BME280;42646;51.910;7.724;2023-02-14T08:18:20;102841.28;;;0.54;100.00
39265;BME280;42646;51.910;7.724;2023-02-14T08:20:48;102845.56;;;0.58;100.00
39265;BME280;42646;51.910;7.724;2023-02-14T08:23:18;102846.41;;;0.62;100.00
39265;BME280;42646;51.910;7.724;2023-02-14T08:25:47;102844.63;;;0.64;100.00
39265;BME280;42646;51.910;7.724;2023-02-14T08:28:15;102841.97;;;0.67;100.00
39265;BME280;42646;51.910;7.724;2023-02-14T08:30:44;102848.06;;;0.69;100.00
39265;BME280;42646;51.910;7.724;2023-02-14T08:33:13;102852.41;;;0.71;100.00
39265;BME280;42646;51.910;7.724;2023-02-14T08:35:42;102856.69;;;0.75;100.00
39265;BME280;42646;51.910;7.724;2023-02-14T08:38:15;102853.09;;;0.84;100.00
39265;BME280;42646;51.910;7.724;2023-02-14T08:40:43;102859.00;;;0.98;100.00
39265;BME280;42646;51.910;7.724;2023-02-14T08:43:11;102857.97;;;1.09;100.00
39265;BME280;42646;51.910;7.724;2023-02-14T08:45:40;102852.63;;;1.15;100.00
39265;BME280;42646;51.910;7.724;2023-02-14T08:48:10;102848.16;;;1.21;100.00
39265;BME280;42646;51.910;7.724;2023-02-14T08:50:39;102856.69;;;1.34;100.00
39265;BME280;42646;51.910;7.724;2023-02-14T08:53:10;102842.47;;;1.47;100.00
39265;BME280;42646;51.910;7.724;2023-02-14T08:55:39;102841.50;;;1.54;100.00
39265;BME280;42646;51.910;7.724;2023-02-14T08:58:07;102839.63;;;1.59;100.00
39265;BME280;42646;51.910;7.724;2023-02-14T09:00:35;102834.31;;;1.64;100.00
39265;BME280;42646;51.910;7.724;2023-02-14T09:03:04;102832.50;;;1.68;100.00
39265;BME280;42646;51.910;7.724;2023-02-14T09:05:32;102835.91;;;1.73;100.00
39265;BME280;42646;51.910;7.724;2023-02-14T09:08:02;102830.47;;;1.82;100.00
39265;BME280;42646;51.910;7.724;2023-02-14T09:10:31;102826.75;;;1.94;100.00
39265;BME280;42646;51.910;7.724;2023-02-14T09:12:59;102823.72;;;2.15;100.00
39265;BME280;42646;51.910;7.724;2023-02-14T09:15:28;102822.22;;;2.45;100.00
39265;BME280;42646;51.910;7.724;2023-02-14T09:17:55;102817.31;;;2.68;100.00
39265;BME280;42646;51.910;7.724;2023-02-14T09:20:23;102823.84;;;2.89;100.00
39265;BME280;42646;51.910;7.724;2023-02-14T09:22:54;102822.53;;;3.07;100.00
39265;BME280;42646;51.910;7.724;2023-02-14T09:25:21;102819.44;;;3.27;100.00
39265;BME280;42646;51.910;7.724;2023-02-14T09:27:51;102814.47;;;3.49;100.00
39265;BME280;42646;51.910;7.724;2023-02-14T09:30:19;102818.44;;;3.65;100.00
39265;BME280;42646;51.910;7.724;2023-02-14T09:32:50;102810.91;;;3.84;100.00
39265;BME280;42646;51.910;7.724;2023-02-14T09:35:17;102819.22;;;4.01;100.00
39265;BME280;42646;51.910;7.724;2023-02-14T09:38:03;102811.75;;;4.17;100.00
39265;BME280;42646;51.910;7.724;2023-02-14T09:40:31;102812.19;;;4.33;100.00
39265;BME280;42646;51.910;7.724;2023-02-14T09:43:07;102812.69;;;4.44;100.00
39265;BME280;42646;51.910;7.724;2023-02-14T09:45:38;102817.47;;;4.61;100.00
39265;BME280;42646;51.910;7.724;2023-02-14T09:48:13;102818.00;;;4.72;100.00
39265;BME280;42646;51.910;7.724;2023-02-14T09:50:47;102811.59;;;4.81;100.00
39265;BME280;42646;51.910;7.724;2023-02-14T09:53:20;102814.63;;;4.95;100.00
39265;BME280;42646;51.910;7.724;2023-02-14T09:55:54;102809.94;;;5.05;100.00
39265;BME280;42646;51.910;7.724;2023-02-14T09:58:28;102802.56;;;5.15;100.00
39265;BME280;42646;51.910;7.724;2023-02-14T10:01:02;102800.38;;;5.27;100.00
39265;BME280;42646;51.910;7.724;2023-02-14T10:03:45;102802.47;;;5.44;100.00
39265;BME280;42646;51.910;7.724;2023-02-14T10:06:38;102799.78;;;5.71;100.00
39265;BME280;42646;51.910;7.724;2023-02-14T10:09:14;102800.38;;;5.79;100.00
39265;BME280;42646;51.910;7.724;2023-02-14T10:11:49;102802.53;;;5.93;100.00
39265;BME280;42646;51.910;7.724;2023-02-14T10:14:20;102806.41;;;6.07;100.00
39265;BME280;42646;51.910;7.724;2023-02-14T10:16:52;102811.81;;;6.28;100.00
39265;BME280;42646;51.910;7.724;2023-02-14T10:19:24;102796.56;;;6.34;100.00
39265;BME280;42646;51.910;7.724;2023-02-14T10:21:57;102803.06;;;6.49;100.00
39265;BME280;42646;51.910;7.724;2023-02-14T10:24:55;102801.81;;;6.59;100.00
39265;BME280;42646;51.910;7.724;2023-02-14T10:27:31;102801.94;;;6.78;100.00
39265;BME280;42646;51.910;7.724;2023-02-14T10:30:11;102794.25;;;6.94;100.00
39265;BME280;42646;51.910;7.724;2023-02-14T10:32:44;102792.75;;;7.09;100.00
39265;BME280;42646;51.910;7.724;2023-02-14T10:35:37;102792.16;;;7.22;100.00
39265;BME280;42646;51.910;7.724;2023-02-14T10:38:14;102787.44;;;7.31;100.00
39265;BME280;42646;51.910;7.724;2023-02-14T10:41:06;102780.75;;;7.42;100.00
39265;BME280;42646;51.910;7.724;2023-02-14T10:44:15;102777.66;;;7.53;100.00
39265;BME280;42646;51.910;7.724;2023-02-14T10:46:58;102780.53;;;7.67;100.00
39265;BME280;42646;51.910;7.724;2023-02-14T10:49:39;102780.00;;;7.80;99.06
39265;BME280;42646;51.910;7.724;2023-02-14T10:52:17;102775.38;;;7.85;97.66
39265;BME280;42646;51.910;7.724;2023-02-14T10:54:52;102773.88;;;7.98;97.43
39265;BME280;42646;51.910;7.724;2023-02-14T10:57:25;102770.53;;;8.13;96.52
39265;BME280;42646;51.910;7.724;2023-02-14T10:59:59;102767.72;;;8.16;95.40
39265;BME280;42646;51.910;7.724;2023-02-14T11:02:32;102770.91;;;8.24;94.81
39265;BME280;42646;51.910;7.724;2023-02-14T11:05:02;102770.81;;;8.26;95.99
39265;BME280;42646;51.910;7.724;2023-02-14T11:07:32;102761.72;;;8.32;96.31
39265;BME280;42646;51.910;7.724;2023-02-14T11:10:09;102754.84;;;8.46;96.12
39265;BME280;42646;51.910;7.724;2023-02-14T11:12:40;102747.47;;;8.53;95.13
39265;BME280;42646;51.910;7.724;2023-02-14T11:15:19;102742.22;;;8.51;96.20
39265;BME280;42646;51.910;7.724;2023-02-14T11:18:07;102734.84;;;8.58;96.02
39265;BME280;42646;51.910;7.724;2023-02-14T11:20:36;102729.63;;;8.56;96.16
39265;BME280;42646;51.910;7.724;2023-02-14T11:23:17;102729.22;;;8.64;94.43
39265;BME280;42646;51.910;7.724;2023-02-14T11:25:51;102726.28;;;8.70;93.91
39265;BME280;42646;51.910;7.724;2023-02-14T11:28:21;102721.78;;;8.72;93.39
39265;BME280;42646;51.910;7.724;2023-02-14T11:30:49;102718.88;;;8.77;93.46
39265;BME280;42646;51.910;7.724;2023-02-14T11:33:31;102716.50;;;8.90;93.56
39265;BME280;42646;51.910;7.724;2023-02-14T11:36:04;102719.38;;;9.02;92.83
39265;BME280;42646;51.910;7.724;2023-02-14T11:38:35;102706.47;;;9.12;92.26
39265;BME280;42646;51.910;7.724;2023-02-14T11:41:05;102698.28;;;9.17;92.22
39265;BME280;42646;51.910;7.724;2023-02-14T11:43:35;102698.91;;;9.22;92.14
39265;BME280;42646;51.910;7.724;2023-02-14T11:46:07;102694.47;;;9.22;91.42
39265;BME280;42646;51.910;7.724;2023-02-14T11:48:55;102699.06;;;9.19;91.07
39265;BME280;42646;51.910;7.724;2023-02-14T11:51:32;102693.38;;;9.26;90.05
39265;BME280;42646;51.910;7.724;2023-02-14T11:54:03;102688.81;;;9.28;89.50
39265;BME280;42646;51.910;7.724;2023-02-14T11:56:48;102687.84;;;9.47;87.36
39265;BME280;42646;51.910;7.724;2023-02-14T11:59:25;102689.19;;;9.55;84.99
39265;BME280;42646;51.910;7.724;2023-02-14T12:02:01;102685.50;;;9.58;82.91
39265;BME280;42646;51.910;7.724;2023-02-14T12:04:34;102678.69;;;9.52;84.71
39265;BME280;42646;51.910;7.724;2023-02-14T12:07:25;102679.56;;;9.53;86.85
39265;BME280;42646;51.910;7.724;2023-02-14T12:12:58;102664.75;;;9.64;86.77
39265;BME280;42646;51.910;7.724;2023-02-14T12:15:34;102662.00;;;9.66;86.69
39265;BME280;42646;51.910;7.724;2023-02-14T12:18:40;102654.91;;;9.67;86.94
39265;BME280;42646;51.910;7.724;2023-02-14T12:21:25;102654.97;;;9.65;87.75
39265;BME280;42646;51.910;7.724;2023-02-14T12:24:04;102657.31;;;9.71;87.95
39265;BME280;42646;51.910;7.724;2023-02-14T12:26:44;102645.41;;;9.78;85.29
39265;BME280;42646;51.910;7.724;2023-02-14T12:29:19;102651.31;;;9.83;85.24
39265;BME280;42646;51.910;7.724;2023-02-14T12:31:51;102653.13;;;9.83;86.00
39265;BME280;42646;51.910;7.724;2023-02-14T12:34:20;102650.22;;;9.87;86.08
39265;BME280;42646;51.910;7.724;2023-02-14T12:37:01;102649.25;;;9.88;86.41
39265;BME280;42646;51.910;7.724;2023-02-14T12:39:37;102645.66;;;9.89;86.66
39265;BME280;42646;51.910;7.724;2023-02-14T12:42:17;102642.00;;;9.92;86.02
39265;BME280;42646;51.910;7.724;2023-02-14T12:44:53;102639.50;;;10.05;83.62
39265;BME280;42646;51.910;7.724;2023-02-14T12:47:33;102634.25;;;10.19;82.06
39265;BME280;42646;51.910;7.724;2023-02-14T12:50:22;102626.91;;;10.24;81.61
39265;BME280;42646;51.910;7.724;2023-02-14T12:53:10;102626.91;;;10.24;82.73
39265;BME280;42646;51.910;7.724;2023-02-14T12:55:52;102624.06;;;10.27;83.00
39265;BME280;42646;51.910;7.724;2023-02-14T12:58:30;102612.13;;;10.34;82.14
39265;BME280;42646;51.910;7.724;2023-02-14T13:01:28;102606.28;;;10.43;81.21
39265;BME280;42646;51.910;7.724;2023-02-14T13:04:18;102601.25;;;10.53;80.10
39265;BME280;42646;51.910;7.724;2023-02-14T13:06:54;102598.72;;;10.66;78.63
39265;BME280;42646;51.910;7.724;2023-02-14T13:09:34;102591.22;;;10.73;78.85
39265;BME280;42646;51.910;7.724;2023-02-14T13:12:14;102598.00;;;10.78;78.91
39265;BME280;42646;51.910;7.724;2023-02-14T13:14:56;102588.50;;;10.74;78.77
39265;BME280;42646;51.910;7.724;2023-02-14T13:17:33;102592.78;;;10.77;79.17
39265;BME280;42646;51.910;7.724;2023-02-14T13:20:21;102585.16;;;10.85;77.13
39265;BME280;42646;51.910;7.724;2023-02-14T13:22:54;102589.09;;;10.79;77.89
39265;BME280;42646;51.910;7.724;2023-02-14T13:25:27;102586.50;;;10.78;79.05
39265;BME280;42646;51.910;7.724;2023-02-14T13:28:01;102584.63;;;10.94;77.51